createdAt,value
2018-05-16T00:01:55.286Z,18.53
2018-05-16T00:04:27.980Z,20.10
2018-05-16T00:07:00.460Z,17.00
2018-05-16T00:09:33.043Z,19.37
2018-05-16T00:12:06.361Z,17.13
2018-05-16T00:14:39.092Z,19.13
2018-05-16T00:17:11.519Z,18.87
2018-05-16T00:19:44.154Z,17.90
2018-05-16T00:22:16.700Z,15.63
2018-05-16T00:24:50.246Z,20.03
2018-05-16T00:27:23.530Z,18.07
2018-05-16T00:29:56.125Z,16.67
2018-05-16T00:32:29.413Z,16.40
2018-05-16T00:35:01.847Z,19.27
2018-05-16T00:37:35.202Z,16.07
2018-05-16T00:40:07.596Z,16.30
2018-05-16T00:42:47.753Z,16.43
2018-05-16T00:45:21.328Z,18.20
2018-05-16T00:47:54.174Z,16.00
2018-05-16T00:50:27.487Z,19.60
2018-05-16T00:53:00.156Z,16.73
2018-05-16T00:55:33.895Z,16.37
2018-05-16T00:58:07.816Z,16.93
2018-05-16T01:00:41.313Z,18.30
2018-05-16T01:03:14.081Z,19.67
2018-05-16T01:05:47.331Z,18.07
2018-05-16T01:08:19.866Z,17.67
2018-05-16T01:10:52.531Z,17.63
2018-05-16T01:13:26.040Z,18.23
2018-05-16T01:16:00.155Z,20.03
2018-05-16T01:18:33.848Z,18.70
2018-05-16T01:21:07.372Z,19.83
2018-05-16T01:23:40.749Z,19.30
2018-05-16T01:26:13.734Z,21.10
2018-05-16T01:28:46.985Z,20.33
2018-05-16T01:31:20.220Z,19.70
2018-05-16T01:33:52.686Z,19.23
2018-05-16T01:36:25.161Z,23.57
2018-05-16T01:38:57.592Z,22.37
2018-05-16T01:41:30.120Z,21.00
2018-05-16T01:44:02.574Z,19.10
2018-05-16T01:46:36.549Z,19.07
2018-05-16T01:49:18.484Z,21.57
2018-05-16T01:51:50.897Z,24.33
2018-05-16T01:54:23.467Z,24.10
2018-05-16T01:56:55.891Z,23.40
2018-05-16T01:59:28.385Z,20.23
2018-05-16T02:02:01.639Z,22.17
2018-05-16T02:04:34.443Z,22.23
2018-05-16T02:07:07.013Z,21.77
2018-05-16T02:09:40.464Z,21.10
2018-05-16T02:12:13.703Z,22.73
2018-05-16T02:14:47.061Z,20.97
2018-05-16T02:17:20.688Z,23.10
2018-05-16T02:19:53.441Z,22.17
2018-05-16T02:22:26.105Z,19.70
2018-05-16T02:24:58.540Z,23.80
2018-05-16T02:27:31.006Z,19.70
2018-05-16T02:30:04.379Z,22.70
2018-05-16T02:32:37.808Z,20.60
2018-05-16T02:35:10.439Z,21.27
2018-05-16T02:37:42.925Z,20.87
2018-05-16T02:40:16.131Z,25.47
2018-05-16T02:42:48.833Z,20.30
2018-05-16T02:45:22.085Z,19.07
2018-05-16T02:47:55.664Z,24.07
2018-05-16T02:50:28.244Z,23.00
2018-05-16T02:53:00.771Z,23.23
2018-05-16T02:55:33.097Z,22.53
2018-05-16T02:58:05.599Z,21.10
2018-05-16T03:00:39.632Z,21.67
2018-05-16T03:03:12.304Z,23.27
2018-05-16T03:05:44.701Z,24.63
2018-05-16T03:08:17.353Z,20.80
2018-05-16T03:10:50.536Z,22.60
2018-05-16T03:13:22.925Z,19.17
2018-05-16T03:15:55.442Z,21.07
2018-05-16T03:18:27.902Z,21.20
2018-05-16T03:21:01.080Z,21.87
2018-05-16T03:23:33.808Z,22.67
2018-05-16T03:26:07.142Z,20.07
2018-05-16T03:28:40.597Z,20.33
2018-05-16T03:31:13.495Z,23.83
2018-05-16T03:33:46.777Z,22.90
2018-05-16T03:36:19.670Z,25.17
2018-05-16T03:38:52.993Z,21.70
2018-05-16T03:41:25.649Z,20.93
2018-05-16T03:43:58.341Z,21.30
2018-05-16T03:46:32.279Z,22.60
2018-05-16T03:49:05.297Z,22.00
2018-05-16T03:51:37.711Z,22.80
2018-05-16T03:54:10.467Z,24.20
2018-05-16T03:56:43.771Z,21.63
2018-05-16T03:59:35.194Z,23.90
2018-05-16T04:05:19.307Z,22.40
2018-05-16T04:07:52.698Z,23.27
2018-05-16T04:10:26.230Z,20.70
2018-05-16T04:12:58.770Z,21.57
2018-05-16T04:15:32.022Z,22.53
2018-05-16T04:18:04.561Z,23.20
2018-05-16T04:20:37.181Z,22.70
2018-05-16T04:23:10.239Z,24.10
2018-05-16T04:25:42.957Z,19.70
2018-05-16T04:28:15.518Z,23.70
2018-05-16T04:30:48.932Z,21.50
2018-05-16T04:33:21.639Z,20.67
2018-05-16T04:35:54.171Z,22.07
2018-05-16T04:38:27.326Z,22.47
2018-05-16T04:41:00.789Z,22.73
2018-05-16T04:43:33.138Z,22.70
2018-05-16T04:46:05.930Z,26.43
2018-05-16T04:48:39.808Z,23.70
2018-05-16T04:51:13.099Z,24.80
2018-05-16T04:53:47.361Z,21.93
2018-05-16T04:56:19.730Z,19.30
2018-05-16T04:58:53.723Z,25.27
2018-05-16T05:01:27.532Z,21.00
2018-05-16T05:04:00.363Z,21.07
2018-05-16T05:06:34.026Z,21.27
2018-05-16T05:09:07.234Z,18.80
2018-05-16T05:11:40.518Z,22.70
2018-05-16T05:14:13.661Z,19.70
2018-05-16T05:16:46.658Z,19.30
2018-05-16T05:19:20.822Z,16.20
2018-05-16T05:21:53.737Z,17.80
2018-05-16T05:24:26.303Z,20.80
2018-05-16T05:26:58.921Z,22.33
2018-05-16T05:29:31.305Z,21.03
2018-05-16T05:32:04.073Z,17.90
2018-05-16T05:34:37.457Z,19.03
2018-05-16T05:37:11.061Z,21.03
2018-05-16T05:39:43.711Z,20.17
2018-05-16T05:42:17.095Z,18.67
2018-05-16T05:44:49.896Z,18.10
2018-05-16T05:47:22.415Z,19.97
2018-05-16T05:49:54.944Z,21.10
2018-05-16T05:52:27.564Z,20.90
2018-05-16T05:55:00.250Z,18.80
2018-05-16T05:57:33.574Z,20.13
2018-05-16T06:00:06.326Z,20.13
2018-05-16T06:02:38.785Z,17.60
2018-05-16T06:05:11.257Z,17.70
2018-05-16T06:07:43.992Z,18.90
2018-05-16T06:10:17.138Z,19.13
2018-05-16T06:12:50.160Z,18.90
2018-05-16T06:15:22.468Z,18.50
2018-05-16T06:17:55.820Z,16.10
2018-05-16T06:20:28.990Z,19.33
2018-05-16T06:23:02.926Z,17.73
2018-05-16T06:25:36.478Z,16.13
2018-05-16T06:28:09.311Z,17.10
2018-05-16T06:30:41.731Z,17.00
2018-05-16T06:33:14.520Z,16.37
2018-05-16T06:35:46.982Z,16.23
2018-05-16T06:38:20.125Z,15.60
2018-05-16T06:40:52.762Z,16.10
2018-05-16T06:43:26.049Z,15.90
2018-05-16T06:45:59.546Z,14.20
2018-05-16T06:48:32.249Z,17.43
2018-05-16T06:51:04.693Z,15.07
2018-05-16T06:53:37.224Z,16.80
2018-05-16T06:56:10.453Z,16.30
2018-05-16T06:58:43.977Z,16.77
2018-05-16T07:01:16.946Z,15.17
2018-05-16T07:03:49.350Z,14.90
2018-05-16T07:06:22.574Z,15.40
2018-05-16T07:08:55.465Z,15.33
2018-05-16T07:11:28.701Z,14.20
2018-05-16T07:14:01.527Z,14.67
2018-05-16T07:16:34.024Z,14.90
2018-05-16T07:19:06.525Z,14.27
2018-05-16T07:21:39.149Z,14.77
2018-05-16T07:24:11.852Z,14.23
2018-05-16T07:26:44.494Z,15.77
2018-05-16T07:29:17.006Z,16.50
2018-05-16T07:31:49.602Z,17.33
2018-05-16T07:34:22.913Z,15.23
2018-05-16T07:36:55.740Z,15.73
2018-05-16T07:39:28.998Z,15.00
2018-05-16T07:42:08.783Z,12.70
2018-05-16T07:44:42.356Z,13.50
2018-05-16T07:47:14.903Z,12.77
2018-05-16T07:49:48.201Z,14.87
2018-05-16T07:52:21.042Z,13.23
2018-05-16T07:54:53.664Z,13.07
2018-05-16T07:57:26.203Z,12.73
2018-05-16T07:59:59.576Z,11.70
2018-05-16T08:02:32.257Z,15.23
2018-05-16T08:05:04.831Z,13.17
2018-05-16T08:07:37.410Z,11.47
2018-05-16T08:10:10.195Z,11.80
2018-05-16T08:12:42.680Z,11.70
2018-05-16T08:15:23.063Z,12.40
2018-05-16T08:17:56.470Z,11.87
2018-05-16T08:20:29.272Z,11.20
2018-05-16T08:23:02.011Z,10.13
2018-05-16T08:25:35.280Z,8.80
2018-05-16T08:28:08.029Z,9.07
2018-05-16T08:30:40.738Z,9.03
2018-05-16T08:33:13.317Z,10.00
2018-05-16T08:35:47.717Z,9.70
2018-05-16T08:38:20.530Z,9.00
2018-05-16T08:40:53.924Z,12.10
2018-05-16T08:43:26.401Z,12.37
2018-05-16T08:45:59.763Z,12.63
2018-05-16T08:48:32.625Z,10.03
2018-05-16T08:51:05.164Z,11.70
2018-05-16T08:53:37.651Z,10.07
2018-05-16T08:56:10.361Z,10.00
2018-05-16T08:58:42.725Z,10.43
2018-05-16T09:01:16.025Z,10.43
2018-05-16T09:03:48.758Z,11.80
2018-05-16T09:06:28.573Z,10.07
2018-05-16T09:09:01.912Z,9.60
2018-05-16T09:11:34.306Z,11.57
2018-05-16T09:14:06.715Z,10.43
2018-05-16T09:16:39.097Z,11.10
2018-05-16T09:19:11.571Z,9.90
2018-05-16T09:21:44.000Z,11.30
2018-05-16T09:24:16.487Z,12.03
2018-05-16T09:26:49.090Z,10.93
2018-05-16T09:29:22.471Z,10.80
2018-05-16T09:31:55.805Z,10.03
2018-05-16T09:34:29.301Z,9.77
2018-05-16T09:37:02.051Z,10.67
2018-05-16T09:39:34.353Z,10.00
2018-05-16T09:42:06.906Z,9.63
2018-05-16T09:44:39.342Z,9.83
2018-05-16T09:47:12.650Z,9.90
2018-05-16T09:49:46.048Z,9.00
2018-05-16T09:52:18.859Z,9.70
2018-05-16T09:54:52.884Z,8.40
2018-05-16T09:57:25.994Z,8.67
2018-05-16T09:59:58.540Z,9.20
2018-05-16T10:02:31.400Z,8.37
2018-05-16T10:05:03.738Z,7.50
2018-05-16T10:07:36.387Z,8.97
2018-05-16T10:10:08.941Z,8.00
2018-05-16T10:12:42.166Z,7.40
2018-05-16T10:15:14.802Z,7.53
2018-05-16T10:17:47.949Z,8.53
2018-05-16T10:20:21.480Z,9.80
2018-05-16T10:22:54.749Z,8.80
2018-05-16T10:25:27.398Z,8.10
2018-05-16T10:27:59.911Z,8.90
2018-05-16T10:30:32.391Z,7.67
2018-05-16T10:33:04.861Z,7.10
2018-05-16T10:35:38.012Z,7.03
2018-05-16T10:38:10.690Z,7.63
2018-05-16T10:40:43.148Z,5.83
2018-05-16T10:43:16.478Z,7.43
2018-05-16T10:45:49.389Z,7.90
2018-05-16T10:48:21.955Z,7.23
2018-05-16T10:50:54.528Z,6.87
2018-05-16T10:53:27.051Z,7.57
2018-05-16T10:55:59.621Z,6.27
2018-05-16T10:58:32.856Z,4.93
2018-05-16T11:01:05.285Z,6.80
2018-05-16T11:03:38.541Z,6.97
2018-05-16T11:06:11.017Z,6.83
2018-05-16T11:08:43.510Z,6.10
2018-05-16T11:11:16.220Z,5.47
2018-05-16T11:13:48.708Z,6.40
2018-05-16T11:16:21.948Z,6.20
2018-05-16T11:18:55.591Z,5.30
2018-05-16T11:21:28.807Z,4.50
2018-05-16T11:24:01.434Z,4.27
2018-05-16T11:26:33.941Z,4.47
2018-05-16T11:29:07.285Z,4.37
2018-05-16T11:31:41.571Z,4.70
2018-05-16T11:34:14.372Z,3.53
2018-05-16T11:36:46.982Z,4.40
2018-05-16T11:39:19.592Z,5.00
2018-05-16T11:41:51.979Z,4.60
2018-05-16T11:44:24.376Z,4.37
2018-05-16T11:46:56.777Z,4.30
2018-05-16T11:49:30.008Z,3.73
2018-05-16T11:52:03.844Z,4.30
2018-05-16T11:54:37.412Z,4.10
2018-05-16T11:57:10.190Z,3.57
2018-05-16T11:59:43.390Z,4.47
2018-05-16T12:02:15.849Z,4.50
2018-05-16T12:04:49.073Z,3.67
2018-05-16T12:07:21.834Z,4.30
2018-05-16T12:09:54.349Z,3.60
2018-05-16T12:12:26.757Z,3.80
2018-05-16T12:14:59.366Z,3.37
2018-05-16T12:17:31.810Z,4.00
2018-05-16T12:20:04.535Z,3.50
2018-05-16T12:22:36.971Z,3.40
2018-05-16T12:25:09.520Z,3.90
2018-05-16T12:27:42.129Z,2.93
2018-05-16T12:30:14.978Z,3.00
2018-05-16T12:32:48.267Z,2.97
2018-05-16T12:35:21.264Z,2.93
2018-05-16T12:37:54.479Z,2.70
2018-05-16T12:40:27.532Z,2.77
2018-05-16T12:43:15.692Z,2.50
2018-05-16T12:45:49.113Z,3.60
2018-05-16T12:48:21.924Z,2.50
2018-05-16T12:50:55.177Z,2.60
2018-05-16T12:53:27.649Z,2.83
2018-05-16T12:56:00.317Z,2.20
2018-05-16T12:58:32.825Z,3.03
2018-05-16T13:01:05.275Z,2.77
2018-05-16T13:03:37.829Z,2.83
2018-05-16T13:06:11.014Z,2.80
2018-05-16T13:08:43.848Z,2.73
2018-05-16T13:11:17.110Z,3.00
2018-05-16T13:13:49.833Z,2.73
2018-05-16T13:16:22.537Z,3.27
2018-05-16T13:18:55.725Z,3.23
2018-05-16T13:21:29.444Z,3.20
2018-05-16T13:24:02.107Z,3.27
2018-05-16T13:26:34.683Z,3.43
2018-05-16T13:29:07.969Z,3.70
2018-05-16T13:31:41.909Z,3.40
2018-05-16T13:34:15.001Z,4.03
2018-05-16T13:36:47.425Z,3.97
2018-05-16T13:39:20.003Z,4.33
2018-05-16T13:41:53.372Z,3.90
2018-05-16T13:44:25.770Z,4.37
2018-05-16T13:46:58.662Z,4.73
2018-05-16T13:49:32.376Z,4.60
2018-05-16T13:52:06.308Z,4.10
2018-05-16T13:54:39.569Z,4.60
2018-05-16T13:57:12.667Z,4.40
2018-05-16T13:59:45.874Z,5.63
2018-05-16T14:02:18.610Z,5.77
2018-05-16T14:04:51.163Z,5.70
2018-05-16T14:07:24.167Z,6.40
2018-05-16T14:09:56.537Z,5.00
2018-05-16T14:12:29.049Z,5.43
2018-05-16T14:15:02.440Z,5.43
2018-05-16T14:17:35.028Z,5.30
2018-05-16T14:20:07.674Z,5.27
2018-05-16T14:22:40.160Z,5.23
2018-05-16T14:25:12.660Z,5.20
2018-05-16T14:27:45.916Z,6.27
2018-05-16T14:30:18.586Z,5.17
2018-05-16T14:32:51.043Z,5.60
2018-05-16T14:35:24.369Z,5.43
2018-05-16T14:37:56.982Z,5.30
2018-05-16T14:40:29.549Z,5.63
2018-05-16T14:43:02.097Z,5.13
2018-05-16T14:45:35.031Z,5.60
2018-05-16T14:48:08.283Z,5.40
2018-05-16T14:50:41.025Z,5.83
2018-05-16T14:53:13.692Z,5.10
2018-05-16T14:55:46.757Z,5.97
2018-05-16T14:58:19.254Z,4.90
2018-05-16T15:00:52.875Z,6.23
2018-05-16T15:03:26.030Z,5.70
2018-05-16T15:05:58.952Z,7.30
2018-05-16T15:08:31.681Z,8.70
2018-05-16T15:11:04.182Z,7.20
2018-05-16T15:13:36.691Z,8.53
2018-05-16T15:16:09.245Z,8.93
2018-05-16T15:18:41.694Z,7.93
2018-05-16T15:21:14.476Z,8.00
2018-05-16T15:23:46.998Z,7.50
2018-05-16T15:26:20.290Z,7.63
2018-05-16T15:28:52.724Z,7.40
2018-05-16T15:31:25.203Z,7.57
2018-05-16T15:33:57.795Z,7.43
2018-05-16T15:36:30.348Z,7.23
2018-05-16T15:39:04.610Z,8.17
2018-05-16T15:41:37.391Z,9.40
2018-05-16T15:44:10.810Z,9.10
2018-05-16T15:46:44.307Z,8.20
2018-05-16T15:49:17.040Z,7.80
2018-05-16T15:51:50.294Z,8.30
2018-05-16T15:54:24.988Z,7.93
2018-05-16T15:56:58.729Z,9.40
2018-05-16T15:59:31.454Z,9.10
2018-05-16T16:02:04.103Z,9.57
2018-05-16T16:04:36.541Z,10.17
2018-05-16T16:07:10.594Z,11.10
2018-05-16T16:09:42.954Z,9.90
2018-05-16T16:12:15.620Z,11.30
2018-05-16T16:14:49.026Z,10.50
2018-05-16T16:17:22.154Z,9.77
2018-05-16T16:19:54.627Z,8.87
2018-05-16T16:22:27.170Z,8.80
2018-05-16T16:24:59.645Z,10.13
2018-05-16T16:27:33.057Z,9.60
2018-05-16T16:30:06.494Z,6.87
2018-05-16T16:32:39.215Z,4.13
2018-05-16T16:35:11.715Z,4.13
2018-05-16T16:37:45.014Z,3.60
2018-05-16T16:40:19.558Z,4.20
2018-05-16T16:42:53.474Z,3.47
2018-05-16T16:45:26.873Z,4.13
2018-05-16T16:47:59.317Z,3.60
2018-05-16T16:50:31.982Z,3.50
2018-05-16T16:53:05.197Z,2.97
2018-05-16T16:55:38.021Z,3.77
2018-05-16T16:58:10.500Z,3.50
2018-05-16T17:00:43.059Z,2.63
2018-05-16T17:03:15.649Z,2.93
2018-05-16T17:05:48.235Z,2.33
2018-05-16T17:08:21.484Z,2.87
2018-05-16T17:10:55.053Z,2.53
2018-05-16T17:13:28.050Z,2.30
2018-05-16T17:16:01.477Z,2.50
2018-05-16T17:18:35.354Z,2.40
2018-05-16T17:21:08.309Z,2.77
2018-05-16T17:23:42.277Z,2.70
2018-05-16T17:26:15.683Z,2.57
2018-05-16T17:28:55.187Z,2.80
2018-05-16T17:31:28.263Z,3.17
2018-05-16T17:34:01.459Z,3.27
2018-05-16T17:36:34.152Z,2.90
2018-05-16T17:39:06.702Z,2.70
2018-05-16T17:41:39.306Z,3.00
2018-05-16T17:44:12.662Z,2.70
2018-05-16T17:46:45.218Z,3.73
2018-05-16T17:49:19.267Z,2.97
2018-05-16T17:51:52.821Z,3.20
2018-05-16T17:54:26.207Z,3.63
2018-05-16T17:56:58.946Z,3.27
2018-05-16T17:59:32.180Z,4.63
2018-05-16T18:02:04.940Z,4.60
2018-05-16T18:04:38.281Z,4.13
2018-05-16T18:07:11.083Z,4.60
2018-05-16T18:09:43.662Z,4.70
2018-05-16T18:12:16.158Z,4.33
2018-05-16T18:17:55.044Z,3.97
2018-05-16T18:20:29.132Z,4.30
2018-05-16T18:23:02.088Z,4.30
2018-05-16T18:25:35.921Z,4.43
2018-05-16T18:28:09.279Z,4.00
2018-05-16T18:30:43.970Z,3.90
2018-05-16T18:33:18.175Z,5.20
2018-05-16T18:35:53.642Z,3.60
2018-05-16T18:38:29.361Z,5.00
2018-05-16T18:41:03.690Z,5.07
2018-05-16T18:43:38.936Z,4.40
2018-05-16T18:46:12.707Z,3.70
2018-05-16T18:48:46.959Z,4.87
2018-05-16T18:51:20.515Z,4.07
2018-05-16T18:53:54.480Z,3.83
2018-05-16T18:56:29.548Z,3.93
2018-05-16T18:59:03.822Z,4.20
2018-05-16T19:01:37.747Z,4.63
2018-05-16T19:04:12.338Z,4.57
2018-05-16T19:06:46.307Z,5.37
2018-05-16T19:09:20.393Z,6.03
2018-05-16T19:11:55.422Z,5.10
2018-05-16T19:14:29.954Z,6.47
2018-05-16T19:17:04.380Z,7.17
2018-05-16T19:19:38.865Z,5.97
2018-05-16T19:22:13.637Z,7.23
2018-05-16T19:24:48.245Z,6.63
2018-05-16T19:27:23.011Z,6.67
2018-05-16T19:29:58.462Z,5.87
2018-05-16T19:32:33.239Z,7.10
2018-05-16T19:35:08.000Z,6.30
2018-05-16T19:37:42.261Z,7.27
2018-05-16T19:40:17.637Z,6.87
2018-05-16T19:42:52.214Z,8.10
2018-05-16T19:45:26.837Z,7.70
2018-05-16T19:48:01.136Z,7.33
2018-05-16T19:50:36.375Z,9.53
2018-05-16T19:53:10.997Z,7.80
2018-05-16T19:55:45.469Z,8.30
2018-05-16T19:58:19.932Z,8.90
2018-05-16T20:00:54.288Z,10.07
2018-05-16T20:03:29.540Z,9.40
2018-05-16T20:06:04.472Z,9.27
2018-05-16T20:08:38.847Z,9.10
2018-05-16T20:11:14.200Z,11.90
2018-05-16T20:13:48.825Z,14.10
2018-05-16T20:16:23.353Z,11.60
2018-05-16T20:18:57.964Z,10.40
2018-05-16T20:21:32.512Z,12.10
2018-05-16T20:24:06.902Z,14.60
2018-05-16T20:26:41.487Z,13.30
2018-05-16T20:29:15.749Z,13.20
2018-05-16T20:31:49.904Z,14.50
2018-05-16T20:34:24.326Z,14.50
2018-05-16T20:36:58.826Z,14.63
2018-05-16T20:39:33.021Z,16.60
2018-05-16T20:42:06.341Z,15.80
2018-05-16T20:44:39.376Z,17.17
2018-05-16T20:47:12.960Z,18.83
2018-05-16T20:49:45.893Z,16.53
2018-05-16T20:52:18.405Z,18.00
2018-05-16T20:54:50.817Z,17.80
2018-05-16T20:57:23.366Z,16.80
2018-05-16T20:59:55.764Z,19.17
2018-05-16T21:02:28.306Z,18.40
2018-05-16T21:05:00.749Z,21.17
2018-05-16T21:07:33.333Z,18.37
2018-05-16T21:10:06.541Z,17.50
2018-05-16T21:12:39.217Z,18.77
2018-05-16T21:15:11.650Z,18.60
2018-05-16T21:17:45.167Z,18.60
2018-05-16T21:20:18.584Z,18.57
2018-05-16T21:22:51.269Z,17.97
2018-05-16T21:25:24.141Z,20.70
2018-05-16T21:27:56.574Z,17.43
2018-05-16T21:30:29.003Z,19.20
2018-05-16T21:33:01.466Z,20.33
2018-05-16T21:35:34.653Z,17.87
2018-05-16T21:38:07.470Z,19.37
2018-05-16T21:40:40.062Z,18.13
2018-05-16T21:43:12.521Z,17.73
2018-05-16T21:45:45.709Z,19.80
2018-05-16T21:48:19.313Z,15.90
2018-05-16T21:50:52.888Z,16.00
2018-05-16T21:53:25.785Z,17.67
2018-05-16T21:55:58.577Z,18.30
2018-05-16T21:58:30.981Z,15.70
2018-05-16T22:01:03.452Z,21.53
2018-05-16T22:03:35.973Z,17.50
2018-05-16T22:06:08.525Z,20.60
2018-05-16T22:08:40.865Z,18.80
2018-05-16T22:11:14.057Z,18.50
2018-05-16T22:13:46.823Z,17.53
2018-05-16T22:16:20.858Z,18.50
2018-05-16T22:18:54.537Z,17.87
2018-05-16T22:21:27.292Z,16.80
2018-05-16T22:23:59.782Z,16.30
2018-05-16T22:26:32.259Z,16.80
2018-05-16T22:29:04.771Z,17.10
2018-05-16T22:31:43.443Z,15.20
2018-05-16T22:34:22.621Z,16.00
2018-05-16T22:37:02.049Z,18.37
2018-05-16T22:39:40.974Z,14.67
2018-05-16T22:42:19.667Z,13.53
2018-05-16T22:44:58.954Z,17.30
2018-05-16T22:47:31.666Z,14.93
2018-05-16T22:50:04.337Z,16.73
2018-05-16T22:52:36.821Z,15.80
2018-05-16T22:55:09.378Z,17.73
2018-05-16T22:57:41.918Z,15.13
2018-05-16T23:00:21.144Z,16.90
2018-05-16T23:02:53.906Z,17.20
2018-05-16T23:05:26.386Z,15.60
2018-05-16T23:07:58.947Z,16.07
2018-05-16T23:10:31.513Z,17.10
2018-05-16T23:13:03.920Z,14.43
2018-05-16T23:15:36.383Z,14.97
2018-05-16T23:18:08.898Z,15.03
2018-05-16T23:20:41.471Z,15.00
2018-05-16T23:23:13.932Z,17.40
2018-05-16T23:25:46.499Z,12.90
2018-05-16T23:28:19.053Z,14.23
2018-05-16T23:30:51.440Z,16.07
2018-05-16T23:33:23.817Z,13.50
2018-05-16T23:35:57.077Z,14.37
2018-05-16T23:38:29.946Z,14.70
2018-05-16T23:41:02.435Z,14.50
2018-05-16T23:43:34.901Z,12.83
2018-05-16T23:46:07.785Z,12.80
2018-05-16T23:48:40.229Z,15.00
2018-05-16T23:51:12.829Z,12.27
2018-05-16T23:53:46.029Z,13.10
2018-05-16T23:56:19.630Z,14.27
2018-05-16T23:58:52.294Z,11.30
